Terminal Aerodrome Forecast
Issued by NWS

Home | Current Version | Previous Version | Text Only | Print | Product List | Glossary On
Versions: 1 2 3 4 5 6 7 8 9 10 11 12 13 14 15 16 17 18 19 20 21 22 23 24 25 26 27 28 29 30 31 32 33 34 35 36 37 38 39 40 41 42 43 44 45 46 47 48 49 50
000
FTUS41 KRNK 240817 AAA
TAFLWB
TAF AMD
KLWB 240817Z 2408/2506 00000KT 3SM BR VCSH SCT001 OVC025
      TEMPO 2408/2411 1SM BR BKN001
     FM241600 29005KT P6SM VCTS BKN040CB
     FM241900 31007KT P6SM BKN050=

USA.gov is the U.S. government's official web portal to all federal, state and local government web resources and services.